sensor_id;sensor_type;location;lat;lon;timestamp;P1;durP1;ratioP1;P2;durP2;ratioP2
66727;SDS011;53641;44.274;19.890;2022-08-05T00:02:08;4.85;;;2.90;;
66727;SDS011;53641;44.274;19.890;2022-08-05T00:04:34;7.93;;;3.13;;
66727;SDS011;53641;44.274;19.890;2022-08-05T00:07:00;4.03;;;2.45;;
66727;SDS011;53641;44.274;19.890;2022-08-05T00:09:26;4.68;;;3.00;;
66727;SDS011;53641;44.274;19.890;2022-08-05T00:11:56;7.63;;;3.10;;
66727;SDS011;53641;44.274;19.890;2022-08-05T00:14:28;6.18;;;2.70;;
66727;SDS011;53641;44.274;19.890;2022-08-05T00:16:54;5.43;;;2.80;;
66727;SDS011;53641;44.274;19.890;2022-08-05T00:19:21;7.05;;;2.65;;
66727;SDS011;53641;44.274;19.890;2022-08-05T00:21:46;6.43;;;2.85;;
66727;SDS011;53641;44.274;19.890;2022-08-05T00:24:12;5.13;;;3.03;;
66727;SDS011;53641;44.274;19.890;2022-08-05T00:26:38;3.05;;;2.58;;
66727;SDS011;53641;44.274;19.890;2022-08-05T00:29:04;5.25;;;3.05;;
66727;SDS011;53641;44.274;19.890;2022-08-05T00:31:30;3.17;;;2.50;;
66727;SDS011;53641;44.274;19.890;2022-08-05T00:33:55;6.47;;;2.47;;
66727;SDS011;53641;44.274;19.890;2022-08-05T00:36:21;6.05;;;2.40;;
66727;SDS011;53641;44.274;19.890;2022-08-05T00:38:48;3.22;;;2.70;;
66727;SDS011;53641;44.274;19.890;2022-08-05T00:41:25;9.38;;;3.13;;
66727;SDS011;53641;44.274;19.890;2022-08-05T00:43:52;6.65;;;2.53;;
66727;SDS011;53641;44.274;19.890;2022-08-05T00:46:17;5.57;;;3.17;;
66727;SDS011;53641;44.274;19.890;2022-08-05T00:48:43;6.38;;;2.60;;
66727;SDS011;53641;44.274;19.890;2022-08-05T00:51:09;4.40;;;2.55;;
66727;SDS011;53641;44.274;19.890;2022-08-05T00:53:35;3.45;;;2.75;;
66727;SDS011;53641;44.274;19.890;2022-08-05T00:56:01;4.40;;;2.80;;
66727;SDS011;53641;44.274;19.890;2022-08-05T00:58:26;8.35;;;2.75;;
66727;SDS011;53641;44.274;19.890;2022-08-05T01:00:52;6.45;;;3.30;;
66727;SDS011;53641;44.274;19.890;2022-08-05T01:03:18;4.15;;;2.72;;
66727;SDS011;53641;44.274;19.890;2022-08-05T01:05:44;5.35;;;3.40;;
66727;SDS011;53641;44.274;19.890;2022-08-05T01:08:10;6.57;;;2.85;;
66727;SDS011;53641;44.274;19.890;2022-08-05T01:10:43;5.07;;;2.97;;
66727;SDS011;53641;44.274;19.890;2022-08-05T01:13:20;6.05;;;3.22;;
66727;SDS011;53641;44.274;19.890;2022-08-05T01:15:53;7.72;;;2.95;;
66727;SDS011;53641;44.274;19.890;2022-08-05T01:18:24;4.57;;;2.78;;
66727;SDS011;53641;44.274;19.890;2022-08-05T01:21:05;7.53;;;2.80;;
66727;SDS011;53641;44.274;19.890;2022-08-05T01:26:58;4.55;;;3.40;;
66727;SDS011;53641;44.274;19.890;2022-08-05T01:29:30;7.03;;;3.28;;
66727;SDS011;53641;44.274;19.890;2022-08-05T01:32:02;5.47;;;2.92;;
66727;SDS011;53641;44.274;19.890;2022-08-05T01:34:34;7.83;;;3.20;;
66727;SDS011;53641;44.274;19.890;2022-08-05T01:37:33;5.18;;;2.95;;
66727;SDS011;53641;44.274;19.890;2022-08-05T01:40:11;5.03;;;3.05;;
66727;SDS011;53641;44.274;19.890;2022-08-05T01:42:40;3.67;;;3.05;;
66727;SDS011;53641;44.274;19.890;2022-08-05T01:45:08;6.72;;;3.20;;
66727;SDS011;53641;44.274;19.890;2022-08-05T01:47:37;6.93;;;2.92;;
66727;SDS011;53641;44.274;19.890;2022-08-05T01:50:07;4.38;;;2.85;;
66727;SDS011;53641;44.274;19.890;2022-08-05T01:52:37;8.65;;;3.08;;
66727;SDS011;53641;44.274;19.890;2022-08-05T01:55:05;8.73;;;3.10;;
66727;SDS011;53641;44.274;19.890;2022-08-05T01:57:37;5.97;;;3.30;;
66727;SDS011;53641;44.274;19.890;2022-08-05T02:00:05;3.97;;;2.78;;
66727;SDS011;53641;44.274;19.890;2022-08-05T02:02:34;3.60;;;2.83;;
66727;SDS011;53641;44.274;19.890;2022-08-05T02:05:03;6.68;;;2.85;;
66727;SDS011;53641;44.274;19.890;2022-08-05T02:07:33;3.80;;;3.03;;
66727;SDS011;53641;44.274;19.890;2022-08-05T02:09:59;5.10;;;2.97;;
66727;SDS011;53641;44.274;19.890;2022-08-05T02:12:31;7.03;;;2.72;;
66727;SDS011;53641;44.274;19.890;2022-08-05T02:15:02;4.47;;;2.90;;
66727;SDS011;53641;44.274;19.890;2022-08-05T02:17:32;4.97;;;3.05;;
66727;SDS011;53641;44.274;19.890;2022-08-05T02:20:03;9.13;;;3.83;;
66727;SDS011;53641;44.274;19.890;2022-08-05T02:22:32;5.85;;;2.85;;
66727;SDS011;53641;44.274;19.890;2022-08-05T02:25:04;5.05;;;3.10;;
66727;SDS011;53641;44.274;19.890;2022-08-05T02:27:33;7.60;;;2.83;;
66727;SDS011;53641;44.274;19.890;2022-08-05T02:30:02;4.78;;;3.15;;
66727;SDS011;53641;44.274;19.890;2022-08-05T02:32:30;5.10;;;3.70;;
66727;SDS011;53641;44.274;19.890;2022-08-05T02:34:58;4.90;;;3.17;;
66727;SDS011;53641;44.274;19.890;2022-08-05T02:37:27;5.18;;;2.60;;
66727;SDS011;53641;44.274;19.890;2022-08-05T02:39:57;4.35;;;2.75;;
66727;SDS011;53641;44.274;19.890;2022-08-05T02:42:23;7.20;;;3.13;;
66727;SDS011;53641;44.274;19.890;2022-08-05T02:44:50;6.47;;;2.90;;
66727;SDS011;53641;44.274;19.890;2022-08-05T02:47:16;4.85;;;2.90;;
66727;SDS011;53641;44.274;19.890;2022-08-05T02:49:44;4.30;;;3.08;;
66727;SDS011;53641;44.274;19.890;2022-08-05T02:54:44;4.32;;;3.10;;
66727;SDS011;53641;44.274;19.890;2022-08-05T02:57:12;3.63;;;2.80;;
66727;SDS011;53641;44.274;19.890;2022-08-05T02:59:44;4.25;;;2.90;;
66727;SDS011;53641;44.274;19.890;2022-08-05T03:02:12;4.18;;;2.55;;
66727;SDS011;53641;44.274;19.890;2022-08-05T03:04:40;5.80;;;3.35;;
66727;SDS011;53641;44.274;19.890;2022-08-05T03:07:08;7.60;;;2.88;;
66727;SDS011;53641;44.274;19.890;2022-08-05T03:09:34;7.72;;;3.05;;
66727;SDS011;53641;44.274;19.890;2022-08-05T03:12:01;8.20;;;2.95;;
66727;SDS011;53641;44.274;19.890;2022-08-05T03:14:27;6.10;;;3.42;;
66727;SDS011;53641;44.274;19.890;2022-08-05T03:16:53;6.80;;;3.10;;
66727;SDS011;53641;44.274;19.890;2022-08-05T03:19:19;5.45;;;2.70;;
66727;SDS011;53641;44.274;19.890;2022-08-05T03:21:44;7.03;;;3.13;;
66727;SDS011;53641;44.274;19.890;2022-08-05T03:24:13;8.25;;;3.40;;
66727;SDS011;53641;44.274;19.890;2022-08-05T03:26:40;7.03;;;3.40;;
66727;SDS011;53641;44.274;19.890;2022-08-05T03:29:06;7.80;;;3.60;;
66727;SDS011;53641;44.274;19.890;2022-08-05T03:31:31;6.78;;;2.97;;
66727;SDS011;53641;44.274;19.890;2022-08-05T03:33:58;5.55;;;3.10;;
66727;SDS011;53641;44.274;19.890;2022-08-05T03:36:24;4.22;;;2.92;;
66727;SDS011;53641;44.274;19.890;2022-08-05T03:38:50;7.22;;;3.40;;
66727;SDS011;53641;44.274;19.890;2022-08-05T03:41:15;7.55;;;3.40;;
66727;SDS011;53641;44.274;19.890;2022-08-05T03:43:42;5.78;;;3.53;;
66727;SDS011;53641;44.274;19.890;2022-08-05T03:46:07;5.78;;;2.90;;
66727;SDS011;53641;44.274;19.890;2022-08-05T03:48:33;7.05;;;3.72;;
66727;SDS011;53641;44.274;19.890;2022-08-05T03:51:05;4.32;;;2.50;;
66727;SDS011;53641;44.274;19.890;2022-08-05T03:53:40;7.07;;;3.30;;
66727;SDS011;53641;44.274;19.890;2022-08-05T03:56:18;6.60;;;3.17;;
66727;SDS011;53641;44.274;19.890;2022-08-05T03:58:50;3.70;;;3.03;;
66727;SDS011;53641;44.274;19.890;2022-08-05T04:01:19;6.57;;;3.30;;
66727;SDS011;53641;44.274;19.890;2022-08-05T04:03:48;6.53;;;3.72;;
66727;SDS011;53641;44.274;19.890;2022-08-05T04:06:18;9.80;;;3.28;;
66727;SDS011;53641;44.274;19.890;2022-08-05T04:08:44;7.90;;;3.08;;
66727;SDS011;53641;44.274;19.890;2022-08-05T04:11:11;8.40;;;3.15;;
66727;SDS011;53641;44.274;19.890;2022-08-05T04:13:40;7.82;;;3.17;;
66727;SDS011;53641;44.274;19.890;2022-08-05T04:16:07;6.10;;;3.17;;
66727;SDS011;53641;44.274;19.890;2022-08-05T04:18:33;9.65;;;3.10;;
66727;SDS011;53641;44.274;19.890;2022-08-05T04:21:00;8.15;;;3.42;;
66727;SDS011;53641;44.274;19.890;2022-08-05T04:23:27;4.95;;;3.40;;
66727;SDS011;53641;44.274;19.890;2022-08-05T04:25:53;8.43;;;3.20;;
66727;SDS011;53641;44.274;19.890;2022-08-05T04:28:19;12.07;;;3.05;;
66727;SDS011;53641;44.274;19.890;2022-08-05T04:30:46;4.78;;;3.05;;
66727;SDS011;53641;44.274;19.890;2022-08-05T04:33:13;6.90;;;2.90;;
66727;SDS011;53641;44.274;19.890;2022-08-05T04:35:40;11.52;;;3.53;;
66727;SDS011;53641;44.274;19.890;2022-08-05T04:38:06;6.93;;;2.83;;
66727;SDS011;53641;44.274;19.890;2022-08-05T04:40:36;10.43;;;3.78;;
66727;SDS011;53641;44.274;19.890;2022-08-05T04:43:03;5.25;;;3.28;;
66727;SDS011;53641;44.274;19.890;2022-08-05T04:45:29;7.70;;;3.47;;
66727;SDS011;53641;44.274;19.890;2022-08-05T04:48:09;5.68;;;3.33;;
66727;SDS011;53641;44.274;19.890;2022-08-05T04:50:37;8.73;;;3.42;;
66727;SDS011;53641;44.274;19.890;2022-08-05T04:53:04;8.55;;;3.75;;
66727;SDS011;53641;44.274;19.890;2022-08-05T04:55:30;17.08;;;3.80;;
66727;SDS011;53641;44.274;19.890;2022-08-05T04:57:56;11.55;;;3.60;;
66727;SDS011;53641;44.274;19.890;2022-08-05T05:00:22;15.63;;;3.80;;
66727;SDS011;53641;44.274;19.890;2022-08-05T05:02:47;5.57;;;3.47;;
66727;SDS011;53641;44.274;19.890;2022-08-05T05:05:13;5.32;;;3.08;;
66727;SDS011;53641;44.274;19.890;2022-08-05T05:07:39;6.88;;;3.45;;
66727;SDS011;53641;44.274;19.890;2022-08-05T05:10:05;3.97;;;3.10;;
66727;SDS011;53641;44.274;19.890;2022-08-05T05:12:31;6.45;;;3.30;;
66727;SDS011;53641;44.274;19.890;2022-08-05T05:14:57;5.72;;;3.42;;
66727;SDS011;53641;44.274;19.890;2022-08-05T05:17:22;5.40;;;3.53;;
66727;SDS011;53641;44.274;19.890;2022-08-05T05:19:48;13.27;;;3.97;;
66727;SDS011;53641;44.274;19.890;2022-08-05T05:22:14;9.15;;;4.32;;
66727;SDS011;53641;44.274;19.890;2022-08-05T05:24:40;6.25;;;3.72;;
66727;SDS011;53641;44.274;19.890;2022-08-05T05:27:06;7.00;;;4.18;;
66727;SDS011;53641;44.274;19.890;2022-08-05T05:29:31;6.25;;;3.30;;
66727;SDS011;53641;44.274;19.890;2022-08-05T05:31:57;8.57;;;3.20;;
66727;SDS011;53641;44.274;19.890;2022-08-05T05:34:23;9.20;;;3.50;;
66727;SDS011;53641;44.274;19.890;2022-08-05T05:36:49;7.47;;;3.25;;
66727;SDS011;53641;44.274;19.890;2022-08-05T05:39:15;4.30;;;3.35;;
66727;SDS011;53641;44.274;19.890;2022-08-05T05:41:40;6.97;;;3.38;;
66727;SDS011;53641;44.274;19.890;2022-08-05T05:44:06;8.50;;;3.28;;
66727;SDS011;53641;44.274;19.890;2022-08-05T05:46:32;9.82;;;3.15;;
66727;SDS011;53641;44.274;19.890;2022-08-05T05:48:58;5.65;;;3.03;;
66727;SDS011;53641;44.274;19.890;2022-08-05T05:51:24;7.30;;;2.60;;
66727;SDS011;53641;44.274;19.890;2022-08-05T05:53:53;6.53;;;3.00;;
66727;SDS011;53641;44.274;19.890;2022-08-05T05:56:19;14.43;;;3.85;;
66727;SDS011;53641;44.274;19.890;2022-08-05T05:58:46;14.30;;;3.95;;
66727;SDS011;53641;44.274;19.890;2022-08-05T06:01:12;13.90;;;3.97;;
66727;SDS011;53641;44.274;19.890;2022-08-05T06:03:39;5.68;;;3.30;;
66727;SDS011;53641;44.274;19.890;2022-08-05T06:06:05;10.80;;;3.45;;
66727;SDS011;53641;44.274;19.890;2022-08-05T06:08:32;4.32;;;3.38;;
66727;SDS011;53641;44.274;19.890;2022-08-05T06:10:57;5.10;;;2.90;;
66727;SDS011;53641;44.274;19.890;2022-08-05T06:13:23;7.20;;;3.05;;
66727;SDS011;53641;44.274;19.890;2022-08-05T06:15:49;11.18;;;3.38;;
66727;SDS011;53641;44.274;19.890;2022-08-05T06:18:15;7.00;;;3.15;;
66727;SDS011;53641;44.274;19.890;2022-08-05T06:20:41;6.47;;;3.47;;
66727;SDS011;53641;44.274;19.890;2022-08-05T06:23:06;6.68;;;2.75;;
66727;SDS011;53641;44.274;19.890;2022-08-05T06:25:32;9.02;;;3.00;;
66727;SDS011;53641;44.274;19.890;2022-08-05T06:27:58;6.80;;;2.90;;
66727;SDS011;53641;44.274;19.890;2022-08-05T06:30:26;5.50;;;3.13;;
66727;SDS011;53641;44.274;19.890;2022-08-05T06:32:52;5.72;;;3.20;;
66727;SDS011;53641;44.274;19.890;2022-08-05T06:35:18;4.82;;;2.53;;
66727;SDS011;53641;44.274;19.890;2022-08-05T06:37:44;5.13;;;3.10;;
66727;SDS011;53641;44.274;19.890;2022-08-05T06:40:10;3.78;;;2.95;;
66727;SDS011;53641;44.274;19.890;2022-08-05T06:42:37;9.02;;;3.42;;
66727;SDS011;53641;44.274;19.890;2022-08-05T06:45:10;4.30;;;3.33;;
66727;SDS011;53641;44.274;19.890;2022-08-05T06:47:36;5.40;;;3.20;;
66727;SDS011;53641;44.274;19.890;2022-08-05T06:50:02;7.90;;;3.30;;
66727;SDS011;53641;44.274;19.890;2022-08-05T06:52:28;4.80;;;3.05;;
66727;SDS011;53641;44.274;19.890;2022-08-05T06:55:21;4.97;;;3.13;;
66727;SDS011;53641;44.274;19.890;2022-08-05T07:00:08;13.02;;;3.75;;
66727;SDS011;53641;44.274;19.890;2022-08-05T07:02:41;11.60;;;3.65;;
66727;SDS011;53641;44.274;19.890;2022-08-05T07:05:07;17.45;;;4.57;;
66727;SDS011;53641;44.274;19.890;2022-08-05T07:07:34;13.18;;;4.75;;
66727;SDS011;53641;44.274;19.890;2022-08-05T07:09:59;11.50;;;4.38;;
66727;SDS011;53641;44.274;19.890;2022-08-05T07:12:25;6.32;;;3.67;;
66727;SDS011;53641;44.274;19.890;2022-08-05T07:15:11;10.95;;;4.55;;
66727;SDS011;53641;44.274;19.890;2022-08-05T07:17:57;8.98;;;4.28;;
66727;SDS011;53641;44.274;19.890;2022-08-05T07:20:23;9.07;;;3.85;;
66727;SDS011;53641;44.274;19.890;2022-08-05T07:22:49;9.25;;;3.63;;
66727;SDS011;53641;44.274;19.890;2022-08-05T07:25:14;14.32;;;4.68;;
66727;SDS011;53641;44.274;19.890;2022-08-05T07:27:40;12.90;;;5.47;;
66727;SDS011;53641;44.274;19.890;2022-08-05T07:30:06;14.82;;;5.25;;
66727;SDS011;53641;44.274;19.890;2022-08-05T07:32:36;15.13;;;5.80;;
66727;SDS011;53641;44.274;19.890;2022-08-05T07:35:06;12.00;;;5.97;;
66727;SDS011;53641;44.274;19.890;2022-08-05T07:37:32;16.98;;;5.85;;
66727;SDS011;53641;44.274;19.890;2022-08-05T07:39:58;27.95;;;5.65;;
66727;SDS011;53641;44.274;19.890;2022-08-05T07:42:24;20.13;;;5.10;;
66727;SDS011;53641;44.274;19.890;2022-08-05T07:44:50;10.85;;;4.40;;
66727;SDS011;53641;44.274;19.890;2022-08-05T07:47:15;9.60;;;5.53;;
66727;SDS011;53641;44.274;19.890;2022-08-05T07:49:41;8.35;;;4.90;;
66727;SDS011;53641;44.274;19.890;2022-08-05T07:52:07;9.20;;;4.75;;
66727;SDS011;53641;44.274;19.890;2022-08-05T07:54:33;14.60;;;4.68;;
66727;SDS011;53641;44.274;19.890;2022-08-05T07:57:02;8.45;;;4.45;;
66727;SDS011;53641;44.274;19.890;2022-08-05T07:59:29;11.50;;;4.60;;
66727;SDS011;53641;44.274;19.890;2022-08-05T08:01:54;12.20;;;4.97;;
66727;SDS011;53641;44.274;19.890;2022-08-05T08:04:20;14.73;;;4.28;;
66727;SDS011;53641;44.274;19.890;2022-08-05T08:06:46;11.07;;;3.85;;
66727;SDS011;53641;44.274;19.890;2022-08-05T08:09:12;10.80;;;4.78;;
66727;SDS011;53641;44.274;19.890;2022-08-05T08:11:38;8.75;;;4.18;;
66727;SDS011;53641;44.274;19.890;2022-08-05T08:14:03;7.85;;;4.30;;
66727;SDS011;53641;44.274;19.890;2022-08-05T08:16:29;15.57;;;4.05;;
66727;SDS011;53641;44.274;19.890;2022-08-05T08:18:55;7.53;;;3.65;;
66727;SDS011;53641;44.274;19.890;2022-08-05T08:21:21;6.05;;;3.80;;
66727;SDS011;53641;44.274;19.890;2022-08-05T08:23:46;6.15;;;4.00;;
66727;SDS011;53641;44.274;19.890;2022-08-05T08:26:15;5.78;;;3.80;;
66727;SDS011;53641;44.274;19.890;2022-08-05T08:28:41;7.80;;;3.95;;
66727;SDS011;53641;44.274;19.890;2022-08-05T08:31:06;9.27;;;4.97;;
66727;SDS011;53641;44.274;19.890;2022-08-05T08:33:33;5.38;;;3.95;;
66727;SDS011;53641;44.274;19.890;2022-08-05T08:35:59;7.03;;;4.20;;
66727;SDS011;53641;44.274;19.890;2022-08-05T08:38:25;24.63;;;6.70;;
66727;SDS011;53641;44.274;19.890;2022-08-05T08:40:50;7.25;;;3.80;;
66727;SDS011;53641;44.274;19.890;2022-08-05T08:43:17;4.38;;;3.45;;
66727;SDS011;53641;44.274;19.890;2022-08-05T08:45:44;12.23;;;3.28;;
66727;SDS011;53641;44.274;19.890;2022-08-05T08:48:11;3.30;;;3.00;;
66727;SDS011;53641;44.274;19.890;2022-08-05T08:50:39;5.85;;;3.13;;
66727;SDS011;53641;44.274;19.890;2022-08-05T08:53:06;3.30;;;3.00;;
66727;SDS011;53641;44.274;19.890;2022-08-05T08:55:34;3.95;;;3.00;;
66727;SDS011;53641;44.274;19.890;2022-08-05T08:58:03;4.35;;;3.10;;
66727;SDS011;53641;44.274;19.890;2022-08-05T09:00:29;5.35;;;3.05;;
66727;SDS011;53641;44.274;19.890;2022-08-05T09:02:55;3.60;;;2.78;;
66727;SDS011;53641;44.274;19.890;2022-08-05T09:05:21;8.02;;;3.22;;
66727;SDS011;53641;44.274;19.890;2022-08-05T09:07:49;3.80;;;2.88;;
66727;SDS011;53641;44.274;19.890;2022-08-05T09:10:16;3.80;;;2.63;;
66727;SDS011;53641;44.274;19.890;2022-08-05T09:12:42;6.65;;;3.05;;
66727;SDS011;53641;44.274;19.890;2022-08-05T09:15:08;3.15;;;2.70;;
66727;SDS011;53641;44.274;19.890;2022-08-05T09:17:34;3.30;;;2.97;;
66727;SDS011;53641;44.274;19.890;2022-08-05T09:20:00;3.25;;;2.95;;
66727;SDS011;53641;44.274;19.890;2022-08-05T09:22:28;4.20;;;3.03;;
66727;SDS011;53641;44.274;19.890;2022-08-05T09:24:57;3.00;;;2.70;;
66727;SDS011;53641;44.274;19.890;2022-08-05T09:27:34;4.85;;;2.83;;
66727;SDS011;53641;44.274;19.890;2022-08-05T09:30:02;2.60;;;2.40;;
66727;SDS011;53641;44.274;19.890;2022-08-05T09:35:01;4.60;;;2.30;;
66727;SDS011;53641;44.274;19.890;2022-08-05T09:37:34;6.20;;;2.20;;
66727;SDS011;53641;44.274;19.890;2022-08-05T09:40:00;4.50;;;2.40;;
66727;SDS011;53641;44.274;19.890;2022-08-05T09:42:27;6.38;;;2.60;;
66727;SDS011;53641;44.274;19.890;2022-08-05T09:45:05;4.43;;;1.88;;
66727;SDS011;53641;44.274;19.890;2022-08-05T09:47:32;2.72;;;1.80;;
66727;SDS011;53641;44.274;19.890;2022-08-05T09:49:59;3.50;;;1.52;;
66727;SDS011;53641;44.274;19.890;2022-08-05T09:52:32;6.53;;;2.97;;
66727;SDS011;53641;44.274;19.890;2022-08-05T09:55:06;2.95;;;1.73;;
66727;SDS011;53641;44.274;19.890;2022-08-05T09:57:34;6.70;;;2.15;;
66727;SDS011;53641;44.274;19.890;2022-08-05T10:00:09;4.75;;;1.77;;
66727;SDS011;53641;44.274;19.890;2022-08-05T10:02:38;7.63;;;2.05;;
66727;SDS011;53641;44.274;19.890;2022-08-05T10:05:19;3.60;;;1.77;;
66727;SDS011;53641;44.274;19.890;2022-08-05T10:07:48;3.05;;;1.90;;
66727;SDS011;53641;44.274;19.890;2022-08-05T10:10:15;1.95;;;1.70;;
66727;SDS011;53641;44.274;19.890;2022-08-05T10:12:44;8.40;;;1.95;;
66727;SDS011;53641;44.274;19.890;2022-08-05T10:15:12;2.75;;;1.92;;
66727;SDS011;53641;44.274;19.890;2022-08-05T10:17:39;2.60;;;1.88;;
66727;SDS011;53641;44.274;19.890;2022-08-05T10:20:05;2.83;;;1.90;;
66727;SDS011;53641;44.274;19.890;2022-08-05T10:22:32;4.75;;;1.92;;
66727;SDS011;53641;44.274;19.890;2022-08-05T10:24:58;2.20;;;1.80;;
66727;SDS011;53641;44.274;19.890;2022-08-05T10:27:24;4.30;;;1.92;;
66727;SDS011;53641;44.274;19.890;2022-08-05T10:29:51;2.90;;;1.95;;
66727;SDS011;53641;44.274;19.890;2022-08-05T10:32:17;3.88;;;1.77;;
66727;SDS011;53641;44.274;19.890;2022-08-05T10:34:43;4.70;;;1.90;;
66727;SDS011;53641;44.274;19.890;2022-08-05T10:37:10;3.55;;;1.70;;
66727;SDS011;53641;44.274;19.890;2022-08-05T10:39:37;5.43;;;2.00;;
66727;SDS011;53641;44.274;19.890;2022-08-05T10:42:17;2.88;;;1.95;;
66727;SDS011;53641;44.274;19.890;2022-08-05T10:44:47;5.25;;;2.20;;
66727;SDS011;53641;44.274;19.890;2022-08-05T10:47:13;4.57;;;2.15;;
66727;SDS011;53641;44.274;19.890;2022-08-05T10:50:04;4.68;;;2.13;;
66727;SDS011;53641;44.274;19.890;2022-08-05T10:52:48;5.22;;;2.00;;
66727;SDS011;53641;44.274;19.890;2022-08-05T10:55:21;6.43;;;2.20;;
66727;SDS011;53641;44.274;19.890;2022-08-05T10:57:48;2.47;;;1.90;;
66727;SDS011;53641;44.274;19.890;2022-08-05T11:00:30;2.35;;;2.13;;
66727;SDS011;53641;44.274;19.890;2022-08-05T11:03:08;3.60;;;1.67;;
66727;SDS011;53641;44.274;19.890;2022-08-05T11:05:35;6.30;;;2.00;;
66727;SDS011;53641;44.274;19.890;2022-08-05T11:08:02;3.22;;;2.05;;
66727;SDS011;53641;44.274;19.890;2022-08-05T11:10:32;7.82;;;1.95;;
66727;SDS011;53641;44.274;19.890;2022-08-05T11:13:00;4.72;;;1.95;;
66727;SDS011;53641;44.274;19.890;2022-08-05T11:15:28;5.20;;;1.90;;
66727;SDS011;53641;44.274;19.890;2022-08-05T11:18:05;3.15;;;1.67;;
66727;SDS011;53641;44.274;19.890;2022-08-05T11:20:43;4.22;;;2.30;;
66727;SDS011;53641;44.274;19.890;2022-08-05T11:23:51;3.35;;;2.22;;
66727;SDS011;53641;44.274;19.890;2022-08-05T11:26:19;7.80;;;2.00;;
66727;SDS011;53641;44.274;19.890;2022-08-05T11:28:50;4.50;;;1.98;;
66727;SDS011;53641;44.274;19.890;2022-08-05T11:31:17;5.55;;;2.22;;
66727;SDS011;53641;44.274;19.890;2022-08-05T11:33:51;2.45;;;1.80;;
66727;SDS011;53641;44.274;19.890;2022-08-05T11:36:20;3.20;;;2.40;;
66727;SDS011;53641;44.274;19.890;2022-08-05T11:39:04;4.43;;;2.08;;
66727;SDS011;53641;44.274;19.890;2022-08-05T11:41:30;3.10;;;1.73;;
66727;SDS011;53641;44.274;19.890;2022-08-05T11:43:57;5.43;;;2.30;;
66727;SDS011;53641;44.274;19.890;2022-08-05T11:46:32;3.40;;;1.85;;
66727;SDS011;53641;44.274;19.890;2022-08-05T11:49:00;6.53;;;4.53;;
66727;SDS011;53641;44.274;19.890;2022-08-05T11:51:27;3.78;;;2.30;;
66727;SDS011;53641;44.274;19.890;2022-08-05T11:53:54;2.75;;;1.63;;
66727;SDS011;53641;44.274;19.890;2022-08-05T11:56:20;2.80;;;2.00;;
66727;SDS011;53641;44.274;19.890;2022-08-05T11:58:47;4.10;;;2.05;;
66727;SDS011;53641;44.274;19.890;2022-08-05T12:01:16;3.20;;;1.98;;
66727;SDS011;53641;44.274;19.890;2022-08-05T12:03:50;3.67;;;1.98;;
66727;SDS011;53641;44.274;19.890;2022-08-05T12:06:20;4.28;;;2.72;;
66727;SDS011;53641;44.274;19.890;2022-08-05T12:08:49;2.78;;;1.98;;
66727;SDS011;53641;44.274;19.890;2022-08-05T12:11:27;2.15;;;1.70;;
66727;SDS011;53641;44.274;19.890;2022-08-05T12:13:56;2.33;;;1.92;;
66727;SDS011;53641;44.274;19.890;2022-08-05T12:16:35;8.25;;;2.92;;
66727;SDS011;53641;44.274;19.890;2022-08-05T12:19:03;4.63;;;2.75;;
66727;SDS011;53641;44.274;19.890;2022-08-05T12:21:30;7.32;;;2.45;;
66727;SDS011;53641;44.274;19.890;2022-08-05T12:24:01;3.20;;;1.90;;
66727;SDS011;53641;44.274;19.890;2022-08-05T12:26:41;2.78;;;2.22;;
66727;SDS011;53641;44.274;19.890;2022-08-05T12:29:19;3.67;;;2.10;;
66727;SDS011;53641;44.274;19.890;2022-08-05T12:31:46;3.95;;;2.70;;
66727;SDS011;53641;44.274;19.890;2022-08-05T12:34:12;2.80;;;2.00;;
66727;SDS011;53641;44.274;19.890;2022-08-05T12:36:39;2.28;;;1.83;;
66727;SDS011;53641;44.274;19.890;2022-08-05T12:39:05;3.03;;;2.10;;
66727;SDS011;53641;44.274;19.890;2022-08-05T12:41:35;4.20;;;1.92;;
66727;SDS011;53641;44.274;19.890;2022-08-05T12:46:28;4.07;;;1.70;;
66727;SDS011;53641;44.274;19.890;2022-08-05T12:48:56;4.05;;;1.77;;
66727;SDS011;53641;44.274;19.890;2022-08-05T12:51:22;4.05;;;1.73;;
66727;SDS011;53641;44.274;19.890;2022-08-05T12:53:48;7.20;;;2.45;;
66727;SDS011;53641;44.274;19.890;2022-08-05T12:56:21;2.70;;;2.10;;
66727;SDS011;53641;44.274;19.890;2022-08-05T12:59:10;4.07;;;2.20;;
66727;SDS011;53641;44.274;19.890;2022-08-05T13:01:33;2.47;;;1.73;;
66727;SDS011;53641;44.274;19.890;2022-08-05T13:04:02;2.25;;;1.90;;
66727;SDS011;53641;44.274;19.890;2022-08-05T13:06:28;3.55;;;2.25;;
66727;SDS011;53641;44.274;19.890;2022-08-05T13:08:54;3.50;;;1.90;;
66727;SDS011;53641;44.274;19.890;2022-08-05T13:11:21;2.92;;;1.58;;
66727;SDS011;53641;44.274;19.890;2022-08-05T13:13:50;3.28;;;2.08;;
66727;SDS011;53641;44.274;19.890;2022-08-05T13:16:18;3.03;;;2.22;;
66727;SDS011;53641;44.274;19.890;2022-08-05T13:18:51;11.00;;;1.98;;
66727;SDS011;53641;44.274;19.890;2022-08-05T13:21:17;2.95;;;1.77;;
66727;SDS011;53641;44.274;19.890;2022-08-05T13:23:43;2.78;;;1.85;;
66727;SDS011;53641;44.274;19.890;2022-08-05T13:26:09;4.22;;;2.10;;
66727;SDS011;53641;44.274;19.890;2022-08-05T13:28:34;7.38;;;2.05;;
66727;SDS011;53641;44.274;19.890;2022-08-05T13:31:00;4.35;;;2.00;;
66727;SDS011;53641;44.274;19.890;2022-08-05T13:33:26;2.25;;;1.70;;
66727;SDS011;53641;44.274;19.890;2022-08-05T13:35:52;5.13;;;1.90;;
66727;SDS011;53641;44.274;19.890;2022-08-05T13:38:19;6.22;;;2.28;;
66727;SDS011;53641;44.274;19.890;2022-08-05T13:40:45;2.85;;;2.10;;
66727;SDS011;53641;44.274;19.890;2022-08-05T13:43:11;5.35;;;1.92;;
66727;SDS011;53641;44.274;19.890;2022-08-05T13:45:37;2.90;;;1.90;;
66727;SDS011;53641;44.274;19.890;2022-08-05T13:48:03;3.78;;;1.80;;
66727;SDS011;53641;44.274;19.890;2022-08-05T13:50:29;3.63;;;1.92;;
66727;SDS011;53641;44.274;19.890;2022-08-05T13:52:55;3.13;;;2.00;;
66727;SDS011;53641;44.274;19.890;2022-08-05T13:55:21;5.35;;;1.85;;
66727;SDS011;53641;44.274;19.890;2022-08-05T13:57:49;4.95;;;2.40;;
66727;SDS011;53641;44.274;19.890;2022-08-05T14:00:15;6.32;;;2.20;;
66727;SDS011;53641;44.274;19.890;2022-08-05T14:02:41;3.50;;;2.10;;
66727;SDS011;53641;44.274;19.890;2022-08-05T14:05:07;7.45;;;2.20;;
66727;SDS011;53641;44.274;19.890;2022-08-05T14:07:37;4.33;;;1.77;;
66727;SDS011;53641;44.274;19.890;2022-08-05T14:10:05;4.93;;;2.00;;
66727;SDS011;53641;44.274;19.890;2022-08-05T14:12:33;4.38;;;2.28;;
66727;SDS011;53641;44.274;19.890;2022-08-05T14:14:58;6.30;;;2.30;;
66727;SDS011;53641;44.274;19.890;2022-08-05T14:17:24;3.90;;;2.30;;
66727;SDS011;53641;44.274;19.890;2022-08-05T14:19:50;4.25;;;2.35;;
66727;SDS011;53641;44.274;19.890;2022-08-05T14:22:16;3.92;;;1.95;;
66727;SDS011;53641;44.274;19.890;2022-08-05T14:24:42;2.88;;;1.73;;
66727;SDS011;53641;44.274;19.890;2022-08-05T14:27:08;4.75;;;2.08;;
66727;SDS011;53641;44.274;19.890;2022-08-05T14:29:34;3.13;;;2.03;;
66727;SDS011;53641;44.274;19.890;2022-08-05T14:32:00;7.50;;;2.03;;
66727;SDS011;53641;44.274;19.890;2022-08-05T14:34:28;13.27;;;2.33;;
66727;SDS011;53641;44.274;19.890;2022-08-05T14:36:54;5.72;;;2.65;;
66727;SDS011;53641;44.274;19.890;2022-08-05T14:39:21;3.92;;;2.10;;
66727;SDS011;53641;44.274;19.890;2022-08-05T14:41:47;5.13;;;2.05;;
66727;SDS011;53641;44.274;19.890;2022-08-05T14:44:13;5.40;;;2.25;;
66727;SDS011;53641;44.274;19.890;2022-08-05T14:46:39;5.30;;;2.08;;
66727;SDS011;53641;44.274;19.890;2022-08-05T14:49:05;5.35;;;2.38;;
66727;SDS011;53641;44.274;19.890;2022-08-05T14:51:30;4.65;;;2.25;;
66727;SDS011;53641;44.274;19.890;2022-08-05T14:53:57;7.20;;;2.17;;